RIPO2: Cimarron River Near Ripley, OK

                                SHEF ID:       RIPO2     Cimarron River near Ripley, OK
STATION TYPE:
Regulating: Stage = 20.00, Flow = 33370

PRECIP ELEVATION STAGE RIV-FLOW AIR-TEMP WIND-DIRWIND-SPEED REL-HUMID VOLTAGE BAT-LOAD
in ft ft cfs F deg mph % volt volt
Ccp-Rev Ccp-Rev Ccp-Rev Ccp-Rev Ccp-Rev Ccp-Rev Ccp-Rev Ccp-Rev Ccp-Rev Ccp-Rev
(America/Chicago)
03/18 00:00 0.00 ---- 7.33 335 130.46 ---- ---- ---- ---- 12.80
03/18 01:00 0.00 ---- 7.39 357 128.66 ---- ---- ---- ---- 12.69
03/18 02:00 0.00 ---- 7.42 370 126.50 ---- ---- ---- ---- 12.61
03/18 03:00 0.00 ---- 7.41 409 124.52 ---- ---- ---- ---- 12.57
03/18 04:00 0.00 ---- 7.40 404 123.44 ---- ---- ---- ---- 12.53
03/18 05:00 0.00 ---- 7.41 409 122.90 ---- ---- ---- ---- 12.53
03/18 06:00 0.00 ---- 7.36 387 123.98 ---- ---- ---- ---- 12.50
03/18 07:00 0.00 ---- 7.40 404 125.42 ---- ---- ---- ---- 12.47
03/18 08:00 0.00 ---- 7.40 404 125.06 ---- ---- ---- ---- 12.44
03/18 09:00 0.00 ---- 7.34 378 130.10 ---- ---- ---- ---- 12.44
03/18 10:00 0.00 ---- 7.36 387 136.58 ---- ---- ---- ---- 13.07
03/18 11:00 0.00 ---- 7.36 387 144.14 ---- ---- ---- ---- 13.72
03/18 12:00 0.00 ---- 7.41 409 152.06 ---- ---- ---- ---- 13.70
03/18 13:00 0.00 ---- 7.43 418 160.34 ---- ---- ---- ---- 13.64
03/18 14:00 0.00 ---- 7.43 418 163.40 ---- ---- ---- ---- 13.55
03/18 15:00 0.00 ---- 7.37 391 167.36 ---- ---- ---- ---- 13.42
03/18 16:00 0.00 ---- 7.42 413 170.96 ---- ---- ---- ---- 13.36
03/18 17:00 0.00 ---- 7.42 413 173.48 ---- ---- ---- ---- 13.30
03/18 18:00 0.00 ---- 7.41 409 174.38 ---- ---- ---- ---- 13.23
03/18 19:00 0.00 ---- 7.42 413 172.04 ---- ---- ---- ---- 13.23
03/18 20:00 0.00 ---- 7.42 413 163.76 ---- ---- ---- ---- 13.26
03/18 21:00 0.00 ---- 7.42 413 156.38 ---- ---- ---- ---- 13.02
03/18 22:00 0.00 ---- 7.42 413 150.08 ---- ---- ---- ---- 12.86
03/18 23:00 0.00 ---- 7.42 413 147.92 ---- ---- ---- ---- 12.74
Data processed at Thu 19Mar2026 04:02 GMT

NOTICE: If you are parsing this page

Please convert to using our Data API. Starting early 2026 we will be migrating to: https://water.usace.army.mil with modern pages rendered in JavaScript. When this migration completes you will no longer be able to scrape this page! CWMSDataAPI (CDA)

Timeseries IDs (TSIDs)

TSIDs used from left to right in the data table
RIPL.Precip-Inc.Total.1Hour.1Hour.Ccp-Rev
RIPL.Stage.Inst.1Hour.0.Ccp-Rev
RIPL.Flow.Inst.1Hour.0.Ccp-Rev
RIPL.Temp-Air.Inst.1Hour.0.Ccp-Rev
RIPL.Dir-Wind.Inst.1Hour.0.Ccp-Rev
RIPL.Speed-Wind.Inst.1Hour.0.Ccp-Rev
RIPL.%-Humidity.Inst.1Hour.0.Ccp-Rev
RIPL.Volt-Battery.Inst.1Hour.0.Ccp-Rev
RIPL.Volt-Battery Load.Inst.1Hour.0.Ccp-Rev

                            

All information presented herein is the property of the government of the United States of America and may be revised or deleted at any time without prior notice. Dissemination of this information without the expressed written consent of the Public Affairs Office, Tulsa District U.S. Army Corps of Engineers is strictly prohibited. These data are gathered electronically and, as presented, have NOT undergone any form of quality control. These data are NOT guaranteed to be valid or correct.